createdAt,value
2022-11-03T00:00:19.716Z,2.40
2022-11-03T00:03:41.917Z,2.60
2022-11-03T00:07:04.672Z,2.28
2022-11-03T00:10:26.520Z,2.13
2022-11-03T00:13:48.675Z,2.65
2022-11-03T00:17:10.094Z,2.78
2022-11-03T00:20:32.107Z,1.95
2022-11-03T00:23:55.581Z,2.33
2022-11-03T00:27:17.389Z,2.88
2022-11-03T00:30:40.859Z,2.10
2022-11-03T00:34:03.891Z,2.30
2022-11-03T00:37:25.577Z,2.00
2022-11-03T00:40:54.552Z,2.00
2022-11-03T00:44:16.348Z,2.58
2022-11-03T00:47:58.440Z,1.90
2022-11-03T00:51:21.569Z,2.35
2022-11-03T00:54:45.490Z,1.88
2022-11-03T00:58:08.704Z,2.22
2022-11-03T01:01:32.533Z,2.10
2022-11-03T01:05:12.187Z,1.90
2022-11-03T01:08:35.136Z,2.92
2022-11-03T01:12:01.675Z,2.20
2022-11-03T01:15:24.997Z,2.15
2022-11-03T01:18:46.562Z,2.03
2022-11-03T01:22:10.830Z,2.88
2022-11-03T01:25:32.821Z,2.35
2022-11-03T01:28:55.266Z,2.05
2022-11-03T01:32:19.002Z,2.20
2022-11-03T01:35:40.874Z,2.40
2022-11-03T01:39:02.414Z,1.80
2022-11-03T01:42:23.903Z,2.33
2022-11-03T01:45:46.503Z,2.28
2022-11-03T01:49:16.397Z,3.42
2022-11-03T01:52:43.672Z,2.25
2022-11-03T01:56:06.396Z,2.70
2022-11-03T01:59:29.213Z,2.15
2022-11-03T02:02:52.591Z,2.10
2022-11-03T02:06:17.033Z,2.38
2022-11-03T02:09:38.503Z,2.50
2022-11-03T02:13:00.653Z,1.92
2022-11-03T02:16:24.743Z,2.00
2022-11-03T02:19:51.475Z,2.20
2022-11-03T02:23:28.316Z,2.67
2022-11-03T02:26:55.335Z,2.72
2022-11-03T02:30:17.453Z,2.83
2022-11-03T02:33:47.339Z,3.22
2022-11-03T02:37:16.763Z,2.85
2022-11-03T02:40:43.101Z,3.90
2022-11-03T02:44:09.162Z,3.10
2022-11-03T02:47:32.720Z,3.83
2022-11-03T02:50:56.185Z,4.25
2022-11-03T02:54:24.279Z,2.90
2022-11-03T02:57:51.243Z,3.33
2022-11-03T03:01:20.637Z,2.83
2022-11-03T03:08:09.101Z,2.95
2022-11-03T03:11:40.505Z,2.80
2022-11-03T03:15:05.510Z,2.72
2022-11-03T03:18:34.345Z,3.35
2022-11-03T03:21:59.456Z,3.72
2022-11-03T03:25:26.282Z,4.18
2022-11-03T03:28:53.477Z,3.42
2022-11-03T03:32:19.863Z,2.95
2022-11-03T03:35:46.711Z,3.10
2022-11-03T03:39:11.829Z,2.97
2022-11-03T03:42:36.244Z,3.10
2022-11-03T03:46:02.457Z,3.20
2022-11-03T03:49:24.358Z,3.28
2022-11-03T03:52:47.203Z,4.25
2022-11-03T03:56:09.179Z,5.32
2022-11-03T03:59:31.293Z,4.57
2022-11-03T04:02:52.871Z,3.60
2022-11-03T04:06:15.029Z,3.92
2022-11-03T04:09:38.580Z,5.47
2022-11-03T04:13:18.370Z,3.80
2022-11-03T04:16:58.261Z,3.83
2022-11-03T04:20:38.094Z,4.50
2022-11-03T04:24:00.978Z,3.58
2022-11-03T04:27:42.686Z,4.00
2022-11-03T04:31:04.599Z,3.03
2022-11-03T04:34:26.682Z,3.53
2022-11-03T04:37:53.055Z,3.75
2022-11-03T04:41:17.913Z,3.90
2022-11-03T04:44:41.412Z,3.40
2022-11-03T04:48:10.895Z,4.45
2022-11-03T04:51:36.138Z,4.13
2022-11-03T04:54:58.103Z,3.95
2022-11-03T04:58:22.260Z,4.03
2022-11-03T05:01:47.297Z,3.65
2022-11-03T05:05:18.301Z,4.10
2022-11-03T05:08:40.503Z,3.53
2022-11-03T05:12:02.524Z,3.30
2022-11-03T05:15:33.353Z,3.15
2022-11-03T05:18:57.695Z,3.08
2022-11-03T05:22:23.652Z,2.78
2022-11-03T05:25:49.276Z,2.70
2022-11-03T05:29:17.564Z,3.10
2022-11-03T05:32:40.525Z,2.92
2022-11-03T05:36:15.369Z,3.00
2022-11-03T05:39:42.214Z,2.92
2022-11-03T05:43:09.745Z,2.42
2022-11-03T05:46:37.870Z,2.92
2022-11-03T05:50:13.105Z,3.25
2022-11-03T05:53:39.858Z,2.45
2022-11-03T05:57:03.644Z,2.72
2022-11-03T06:00:35.410Z,3.47
2022-11-03T06:03:59.417Z,3.42
2022-11-03T06:07:26.754Z,3.33
2022-11-03T06:10:52.374Z,3.50
2022-11-03T06:14:24.386Z,3.17
2022-11-03T06:17:47.420Z,3.10
2022-11-03T06:21:14.377Z,3.00
2022-11-03T06:24:37.624Z,3.10
2022-11-03T06:28:06.730Z,2.97
2022-11-03T06:31:30.916Z,3.40
2022-11-03T06:34:57.669Z,3.58
2022-11-03T06:38:23.436Z,3.22
2022-11-03T06:41:45.953Z,4.43
2022-11-03T06:45:20.777Z,3.50
2022-11-03T06:48:43.698Z,3.40
2022-11-03T06:52:22.704Z,3.13
2022-11-03T06:55:45.634Z,2.90
2022-11-03T06:59:14.803Z,3.67
2022-11-03T07:02:57.772Z,4.00
2022-11-03T07:06:24.895Z,2.88
2022-11-03T07:09:47.898Z,2.28
2022-11-03T07:13:16.386Z,3.25
2022-11-03T07:16:43.338Z,2.97
2022-11-03T07:20:16.429Z,5.05
2022-11-03T07:23:42.134Z,4.28
2022-11-03T07:27:18.118Z,5.55
2022-11-03T07:30:40.876Z,4.60
2022-11-03T07:34:03.627Z,3.70
2022-11-03T07:37:28.636Z,3.47
2022-11-03T07:40:53.458Z,4.28
2022-11-03T07:44:21.209Z,3.63
2022-11-03T07:47:46.433Z,4.00
2022-11-03T07:51:22.288Z,3.58
2022-11-03T07:54:46.786Z,3.08
2022-11-03T07:58:22.547Z,3.65
2022-11-03T08:01:47.418Z,3.67
2022-11-03T08:05:11.396Z,3.35
2022-11-03T08:08:34.393Z,3.35
2022-11-03T08:11:58.895Z,3.10
2022-11-03T08:15:21.742Z,2.38
2022-11-03T08:18:44.813Z,5.55
2022-11-03T08:22:07.360Z,3.83
2022-11-03T08:25:30.328Z,3.80
2022-11-03T08:28:54.609Z,5.38
2022-11-03T08:32:17.680Z,2.70
2022-11-03T08:35:41.356Z,2.25
2022-11-03T08:39:05.456Z,4.38
2022-11-03T08:42:28.294Z,2.47
2022-11-03T08:45:54.331Z,3.28
2022-11-03T08:49:17.286Z,7.07
2022-11-03T08:52:40.345Z,7.10
2022-11-03T08:56:03.409Z,2.88
2022-11-03T08:59:26.581Z,2.65
2022-11-03T09:02:51.070Z,3.03
2022-11-03T09:06:13.623Z,2.92
2022-11-03T09:13:19.453Z,3.25
2022-11-03T09:16:42.451Z,2.47
2022-11-03T09:20:08.196Z,2.45
2022-11-03T09:23:30.645Z,3.78
2022-11-03T09:26:55.965Z,3.05
2022-11-03T09:30:22.296Z,3.67
2022-11-03T09:33:45.366Z,3.70
2022-11-03T09:37:09.961Z,3.67
2022-11-03T09:40:34.834Z,3.72
2022-11-03T09:44:01.002Z,4.60
2022-11-03T09:47:27.127Z,3.40
2022-11-03T09:50:53.987Z,2.60
2022-11-03T09:54:19.394Z,2.88
2022-11-03T09:57:42.163Z,2.22
2022-11-03T10:01:05.037Z,2.30
2022-11-03T10:04:30.473Z,2.30
2022-11-03T10:14:48.316Z,1.70
2022-11-03T10:19:00.947Z,1.80
2022-11-03T10:22:24.418Z,3.10
2022-11-03T10:25:47.893Z,2.00
2022-11-03T10:29:21.603Z,1.80
2022-11-03T10:32:47.526Z,2.53
2022-11-03T10:36:25.851Z,6.68
2022-11-03T10:39:49.020Z,6.30
2022-11-03T10:43:13.822Z,4.32
2022-11-03T10:46:50.585Z,4.90
2022-11-03T10:50:26.467Z,5.70
2022-11-03T10:53:51.263Z,5.47
2022-11-03T10:57:14.946Z,5.55
2022-11-03T11:00:37.723Z,2.95
2022-11-03T11:04:02.530Z,3.95
2022-11-03T11:07:28.223Z,2.92
2022-11-03T11:10:51.192Z,4.13
2022-11-03T11:14:24.802Z,2.28
2022-11-03T11:17:50.522Z,2.42
2022-11-03T11:21:48.195Z,2.40
2022-11-03T11:25:12.895Z,1.83
2022-11-03T11:28:35.647Z,3.58
2022-11-03T11:31:58.714Z,3.33
2022-11-03T11:36:00.687Z,2.17
2022-11-03T11:39:47.096Z,2.20
2022-11-03T11:43:30.644Z,2.00
2022-11-03T11:46:53.497Z,2.28
2022-11-03T11:50:24.547Z,2.30
2022-11-03T11:53:58.765Z,2.47
2022-11-03T11:57:37.092Z,3.25
2022-11-03T12:01:03.836Z,2.40
2022-11-03T12:04:31.960Z,2.38
2022-11-03T12:07:55.081Z,2.47
2022-11-03T12:11:37.907Z,2.22
2022-11-03T12:15:00.973Z,2.30
2022-11-03T12:18:42.556Z,2.83
2022-11-03T12:22:12.596Z,2.80
2022-11-03T12:25:40.571Z,3.33
2022-11-03T12:29:03.223Z,2.80
2022-11-03T12:32:33.615Z,2.35
2022-11-03T12:35:59.899Z,2.70
2022-11-03T12:39:23.366Z,4.78
2022-11-03T12:42:46.544Z,5.32
2022-11-03T12:46:09.597Z,4.00
2022-11-03T12:49:32.252Z,2.60
2022-11-03T12:52:56.845Z,2.95
2022-11-03T12:56:21.033Z,2.55
2022-11-03T12:59:43.795Z,2.90
2022-11-03T13:03:07.419Z,3.10
2022-11-03T13:06:30.736Z,3.83
2022-11-03T13:09:55.333Z,4.78
2022-11-03T13:13:18.290Z,4.65
2022-11-03T13:16:40.947Z,30.30
2022-11-03T13:20:03.890Z,23.25
2022-11-03T13:23:27.682Z,22.13
2022-11-03T13:26:52.078Z,15.38
2022-11-03T13:30:15.347Z,11.05
2022-11-03T13:33:38.099Z,7.25
2022-11-03T13:37:01.265Z,9.20
2022-11-03T13:44:09.306Z,13.25
2022-11-03T13:47:40.475Z,16.60
2022-11-03T13:51:18.125Z,10.98
2022-11-03T16:35:39.001Z,13.25
2022-11-03T16:39:01.213Z,15.10
2022-11-03T16:42:23.428Z,11.88
2022-11-03T16:45:45.720Z,13.13
2022-11-03T16:49:08.082Z,13.93
2022-11-03T16:52:31.559Z,12.63
2022-11-03T16:55:53.736Z,10.88
2022-11-03T16:59:15.686Z,10.77
2022-11-03T17:02:37.756Z,59.03
2022-11-03T17:05:59.755Z,33.15
2022-11-03T17:09:23.284Z,18.63
2022-11-03T17:12:45.123Z,22.67
2022-11-03T17:16:08.618Z,15.43
2022-11-03T17:19:30.710Z,12.77
2022-11-03T17:22:52.682Z,10.05
2022-11-03T17:26:16.405Z,10.68
2022-11-03T17:29:42.261Z,11.20
2022-11-03T17:33:10.359Z,10.18
2022-11-03T17:36:33.647Z,12.73
2022-11-03T17:39:56.888Z,16.80
2022-11-03T17:43:22.781Z,17.02
2022-11-03T17:46:44.736Z,25.73
2022-11-03T17:50:07.087Z,18.25
2022-11-03T17:53:32.110Z,13.57
2022-11-03T17:56:54.007Z,10.63
2022-11-03T18:00:21.970Z,9.68
2022-11-03T18:03:43.851Z,10.68
2022-11-03T18:07:12.982Z,10.02
2022-11-03T18:10:36.840Z,9.65
2022-11-03T18:13:57.346Z,12.00
2022-11-03T18:17:20.575Z,10.38
2022-11-03T18:20:51.898Z,9.93
2022-11-03T18:24:18.300Z,12.40
2022-11-03T18:27:40.333Z,8.90
2022-11-03T18:31:02.082Z,9.07
2022-11-03T18:34:28.245Z,9.75
2022-11-03T18:37:51.880Z,9.90
2022-11-03T18:41:29.232Z,12.98
2022-11-03T18:44:51.290Z,14.43
2022-11-03T18:48:19.476Z,11.43
2022-11-03T18:51:51.199Z,13.50
2022-11-03T18:55:13.930Z,10.57
2022-11-03T18:58:35.891Z,9.18
2022-11-03T19:01:58.134Z,9.60
2022-11-03T19:05:20.544Z,7.15
2022-11-03T19:08:46.650Z,10.15
2022-11-03T19:12:11.645Z,7.28
2022-11-03T19:15:33.448Z,11.02
2022-11-03T19:18:55.305Z,10.07
2022-11-03T19:22:18.650Z,9.27
2022-11-03T19:25:44.121Z,10.82
2022-11-03T19:29:10.731Z,7.03
2022-11-03T19:32:36.970Z,9.48
2022-11-03T19:35:59.185Z,7.72
2022-11-03T19:39:26.328Z,10.98
2022-11-03T19:42:49.883Z,7.50
2022-11-03T19:46:18.946Z,7.18
2022-11-03T19:53:04.579Z,10.80
2022-11-03T19:56:26.449Z,7.65
2022-11-03T19:59:50.235Z,8.32
2022-11-03T20:03:12.610Z,7.13
2022-11-03T20:06:34.905Z,8.32
2022-11-03T20:09:56.835Z,8.88
2022-11-03T20:13:22.189Z,11.27
2022-11-03T20:16:45.531Z,9.38
2022-11-03T20:20:08.446Z,8.15
2022-11-03T20:23:34.356Z,7.18
2022-11-03T20:26:56.473Z,8.80
2022-11-03T20:30:21.335Z,8.77
2022-11-03T20:33:44.907Z,7.57
2022-11-03T20:37:16.915Z,9.10
2022-11-03T20:40:38.959Z,9.05
2022-11-03T20:44:01.088Z,11.60
2022-11-03T20:47:23.385Z,10.38
2022-11-03T20:50:46.919Z,9.55
2022-11-03T20:54:16.143Z,8.30
2022-11-03T20:57:38.676Z,9.38
2022-11-03T21:01:01.534Z,11.55
2022-11-03T21:04:23.591Z,7.82
2022-11-03T21:07:47.322Z,8.23
2022-11-03T21:11:27.787Z,7.93
2022-11-03T21:15:03.755Z,9.35
2022-11-03T21:18:43.437Z,7.55
2022-11-03T21:25:59.035Z,6.43
2022-11-03T21:29:38.968Z,9.02
2022-11-03T21:33:03.114Z,8.40
2022-11-03T21:36:25.263Z,8.25
2022-11-03T21:39:47.751Z,8.65
2022-11-03T21:43:29.455Z,8.43
2022-11-03T21:46:51.469Z,7.93
2022-11-03T21:50:13.269Z,7.78
2022-11-03T21:53:34.945Z,7.18
2022-11-03T21:56:57.165Z,6.90
2022-11-03T22:00:20.432Z,8.45
2022-11-03T22:03:42.399Z,9.15
2022-11-03T22:07:04.829Z,7.72
2022-11-03T22:10:26.809Z,7.70
2022-11-03T22:13:48.766Z,5.82
2022-11-03T22:17:10.905Z,6.75
2022-11-03T22:20:50.413Z,6.22
2022-11-03T22:24:30.113Z,6.43
2022-11-03T22:27:52.096Z,7.03
2022-11-03T22:31:31.232Z,7.25
2022-11-03T22:35:11.834Z,6.18
2022-11-03T22:38:56.828Z,5.78
2022-11-03T22:42:36.357Z,7.03
2022-11-03T22:45:58.683Z,12.57
2022-11-03T22:49:20.380Z,10.63
2022-11-03T22:52:43.886Z,8.85
2022-11-03T22:56:05.933Z,8.50
2022-11-03T22:59:27.943Z,8.93
2022-11-03T23:02:49.426Z,11.68
2022-11-03T23:06:13.353Z,9.10
2022-11-03T23:09:36.631Z,9.98
2022-11-03T23:12:58.616Z,11.68
2022-11-03T23:16:22.973Z,13.65
2022-11-03T23:20:02.488Z,14.52
2022-11-03T23:23:44.474Z,9.90
2022-11-03T23:27:08.376Z,9.20
2022-11-03T23:30:30.453Z,9.50
2022-11-03T23:33:52.768Z,14.68
2022-11-03T23:37:14.894Z,14.38
2022-11-03T23:40:36.620Z,9.85
2022-11-03T23:44:00.101Z,10.98
2022-11-03T23:47:39.922Z,13.00
2022-11-03T23:51:02.228Z,9.75
2022-11-03T23:54:24.542Z,10.10
2022-11-03T23:58:04.277Z,10.68
